Pendleton, New York
Current Conditions -  °F | °C
As of 4:30 PM on Saturday 25 Oct 2014 (Local Time) from KIAG Reporting Station
Haze Haze  
Wind Chill: 59°   Ceiling: 3200
Heat Index: 59°   Visibility: 6mi
Dew Point: 50°   Wind: 14mph
Humidity: 72%   Direction: 280°W
Pressure: 29.62"   Gusts: NA
Location:  43.0772°N, 78.8339°W
Report Text: KIAG 252030Z 28012KT 6SM HZ SCT022 SCT027 BKN032 15/10 A2962 RMK AO2 T01500100
Loading
Personal Weather Stations






























Interactive Weather Map New forecast layout! Learn more

10-Day Weather Forecast

Advertisements
Track Severe Weather on mobile